Time;durP1;ratioP1;P1;durP2;ratioP2;P2;SDS_P1;SDS_P2;PMS_P1;PMS_P2;Temp;Humidity;BMP_temperature;BMP_pressure;BME280_temperature;BME280_humidity;BME280_pressure;Samples;Min_cycle;Max_cycle;Signal;HPM_P1;HPM_P2
2023/03/30 00:00:58;;;;;;;;;5.00;3.00;;;;;18.96;44.27;100533.13;5079866;28;46222;-74
2023/03/30 00:03:26;;;;;;;;;3.00;2.33;;;;;18.92;44.39;100541.06;5080123;28;45338;-73
2023/03/30 00:05:55;;;;;;;;;3.67;3.00;;;;;18.84;45.25;100539.34;5080528;28;45361;-74
2023/03/30 00:08:27;;;;;;;;;5.00;3.00;;;;;18.83;44.89;100558.75;5080853;28;45303;-74
2023/03/30 00:11:00;;;;;;;;;3.33;2.67;;;;;18.77;46.15;100563.16;5080486;28;46143;-74
2023/03/30 00:13:30;;;;;;;;;3.67;1.67;;;;;18.64;45.68;100549.06;5061723;28;45418;-74
2023/03/30 00:15:55;;;;;;;;;3.00;2.67;;;;;18.61;45.34;100549.97;5080103;28;45485;-74
2023/03/30 00:18:21;;;;;;;;;4.67;3.00;;;;;18.61;45.85;100557.91;5080556;28;45485;-74
2023/03/30 00:20:51;;;;;;;;;2.67;2.67;;;;;18.59;45.79;100559.69;5079777;28;45926;-75
2023/03/30 00:23:17;;;;;;;;;3.33;2.67;;;;;18.54;45.68;100548.22;5079833;28;45419;-74
2023/03/30 00:25:43;;;;;;;;;3.67;3.00;;;;;18.47;46.21;100546.47;5079940;28;45552;-75
2023/03/30 00:28:08;;;;;;;;;5.00;4.00;;;;;18.41;45.68;100531.50;5080069;28;45339;-75
2023/03/30 00:30:35;;;;;;;;;2.67;2.00;;;;;18.43;46.69;100548.25;5079681;28;45586;-75
2023/03/30 00:33:05;;;;;;;;;4.67;3.67;;;;;18.25;46.94;100540.34;5061540;28;45450;-74
2023/03/30 00:35:30;;;;;;;;;4.67;2.67;;;;;18.33;46.71;100554.44;5079743;27;45380;-75
2023/03/30 00:38:00;;;;;;;;;4.33;3.33;;;;;18.26;47.42;100547.41;5079986;28;45442;-74
2023/03/30 00:40:26;;;;;;;;;3.33;3.00;;;;;18.16;47.82;100553.56;5079707;28;45536;-74
2023/03/30 00:43:00;;;;;;;;;2.67;2.67;;;;;18.06;47.42;100531.56;5079843;28;45496;-74
2023/03/30 00:45:31;;;;;;;;;6.00;3.00;;;;;18.09;48.24;100550.94;5079072;28;45240;-74
2023/03/30 00:47:57;;;;;;;;;4.67;4.33;;;;;18.06;48.59;100537.75;5079814;28;45309;-74
2023/03/30 00:50:28;;;;;;;;;3.00;2.67;;;;;18.03;48.20;100535.09;5079462;28;45891;-74
2023/03/30 00:52:57;;;;;;;;;4.00;3.33;;;;;17.88;48.83;100516.59;5061653;28;45430;-75
2023/03/30 00:55:29;;;;;;;;;3.50;3.50;;;;;17.98;48.96;100528.03;5079878;28;45381;-74
2023/03/30 00:57:55;;;;;;;;;6.33;3.67;;;;;17.96;49.17;100525.41;5080005;28;45445;-74
2023/03/30 01:00:22;;;;;;;;;3.75;3.75;;;;;17.92;49.11;100526.28;5079265;28;45283;-74
2023/03/30 01:02:58;;;;;;;;;4.00;4.00;;;;;17.85;49.22;100532.47;5078735;28;45545;-74
2023/03/30 01:05:24;;;;;;;;;5.00;3.00;;;;;17.79;49.27;100530.66;5078125;28;45320;-74
2023/03/30 01:07:51;;;;;;;;;2.67;2.67;;;;;17.73;49.28;100528.03;5078227;28;45535;-75
2023/03/30 01:10:17;;;;;;;;;4.00;2.67;;;;;17.59;49.21;100509.53;5079120;28;45286;-74
2023/03/30 01:12:43;;;;;;;;;2.33;2.33;;;;;17.61;49.65;100525.38;5079098;28;45271;-74
2023/03/30 01:15:09;;;;;;;;;4.00;3.00;;;;;17.58;50.22;100534.16;5079053;28;45314;-74
2023/03/30 01:18:26;;;;;;;;;5.00;5.00;;;;;17.47;50.15;100528.00;5079324;28;45536;-74
2023/03/30 01:21:22;;;;;;;;;3.33;3.00;;;;;17.42;50.80;100535.91;5033696;28;45327;-72
2023/03/30 01:24:09;;;;;;;;;4.67;4.00;;;;;17.38;50.32;100535.91;5078941;28;45334;-72
2023/03/30 01:26:35;;;;;;;;;2.00;2.00;;;;;17.29;50.72;100542.06;5079078;27;45466;-72
2023/03/30 01:29:06;;;;;;;;;6.67;3.67;;;;;17.29;50.44;100539.41;5078945;28;45393;-73
2023/03/30 01:31:53;;;;;;;;;4.00;3.00;;;;;17.26;51.01;100532.34;5078697;27;46422;-74
2023/03/30 01:34:34;;;;;;;;;4.00;4.00;;;;;17.14;51.28;100527.03;5077596;28;45283;-74
2023/03/30 01:37:20;;;;;;;;;5.00;4.00;;;;;17.12;51.72;100520.88;5060633;28;45320;-73
2023/03/30 01:40:36;;;;;;;;;4.00;3.67;;;;;17.03;52.53;100512.91;5078394;28;45231;-74
2023/03/30 01:43:18;;;;;;;;;6.00;3.33;;;;;16.85;53.06;100503.19;4996030;28;45473;-74
2023/03/30 01:45:51;;;;;;;;;3.00;3.00;;;;;16.82;51.88;100497.91;4996113;28;45560;-73
2023/03/30 01:48:44;;;;;;;;;4.00;4.00;;;;;16.82;52.54;100496.16;5047424;28;45499;-74
2023/03/30 01:51:25;;;;;;;;;4.00;4.00;;;;;16.82;52.92;100493.50;5078160;28;45300;-74
2023/03/30 01:54:02;;;;;;;;;4.67;4.67;;;;;16.75;54.25;100499.63;5078346;28;46189;-74
2023/03/30 01:56:34;;;;;;;;;6.00;4.00;;;;;16.63;53.66;100502.19;5078432;28;45382;-73
2023/03/30 01:59:25;;;;;;;;;5.00;4.00;;;;;16.58;54.72;100504.81;5078500;28;45421;-72
2023/03/30 02:01:59;;;;;;;;;5.75;4.00;;;;;16.53;54.27;100496.00;5068346;28;45473;-75
2023/03/30 02:04:27;;;;;;;;;5.00;4.00;;;;;16.41;54.94;100496.84;5078437;28;46932;-74
2023/03/30 02:07:00;;;;;;;;;4.50;3.75;;;;;16.42;54.54;100485.41;5078113;28;45542;-71
2023/03/30 02:09:28;;;;;;;;;3.67;2.67;;;;;16.41;54.99;100483.66;5078601;27;45496;-72
2023/03/30 02:11:55;;;;;;;;;5.33;3.33;;;;;16.33;55.64;100469.53;5078408;28;45336;-71
2023/03/30 02:14:25;;;;;;;;;4.00;4.00;;;;;16.29;54.79;100465.13;5078164;28;46272;-72
2023/03/30 02:16:59;;;;;;;;;4.75;3.50;;;;;16.31;55.58;100484.44;5077687;28;45372;-72
2023/03/30 02:19:25;;;;;;;;;4.00;4.00;;;;;16.25;55.07;100474.78;5059988;28;45436;-71
2023/03/30 02:21:50;;;;;;;;;3.00;3.00;;;;;16.36;55.17;100492.41;5078313;28;45274;-74
2023/03/30 02:24:21;;;;;;;;;3.00;3.00;;;;;16.00;57.54;100483.41;5078190;28;46113;-74
2023/03/30 02:26:50;;;;;;;;;4.50;4.00;;;;;15.86;58.26;100510.53;5076841;28;45371;-75
2023/03/30 02:29:17;;;;;;;;;3.67;3.00;;;;;15.69;58.99;100509.47;5078053;28;45549;-74
2023/03/30 02:31:45;;;;;;;;;3.67;2.67;;;;;15.71;57.88;100513.00;5077703;28;45270;-72
2023/03/30 02:34:23;;;;;;;;;3.50;3.00;;;;;15.77;58.37;100518.34;5039361;28;46785;-73
2023/03/30 02:37:13;;;;;;;;;4.50;3.75;;;;;15.82;57.71;100529.81;5057136;28;45388;-73
2023/03/30 02:40:00;;;;;;;;;4.75;3.00;;;;;15.85;57.35;100539.47;5057792;28;45327;-72
2023/03/30 02:42:32;;;;;;;;;4.00;3.50;;;;;15.81;58.39;100537.69;5057773;28;45476;-73
2023/03/30 02:45:03;;;;;;;;;4.75;4.00;;;;;15.77;57.88;100536.78;5063280;27;46141;-72
2023/03/30 02:47:51;;;;;;;;;3.25;3.25;;;;;15.81;57.60;100545.59;5077902;28;45563;-72
2023/03/30 02:50:41;;;;;;;;;3.00;3.00;;;;;15.79;58.10;100555.22;5076936;28;45299;-72
2023/03/30 02:53:26;;;;;;;;;4.00;2.75;;;;;15.77;57.62;100544.69;5077808;27;45266;-72
2023/03/30 02:56:02;;;;;;;;;4.25;3.00;;;;;15.80;57.38;100559.66;5077492;27;45375;-72
2023/03/30 02:58:48;;;;;;;;;4.50;4.00;;;;;15.78;57.46;100551.72;5059691;28;45430;-71
2023/03/30 03:01:29;;;;;;;;;3.75;3.00;;;;;15.69;57.52;100547.22;5058523;28;45327;-72
2023/03/30 03:04:00;;;;;;;;;4.00;3.00;;;;;15.64;58.32;100550.69;5059583;28;45318;-72
2023/03/30 03:06:27;;;;;;;;;1.25;1.00;;;;;15.57;59.04;100564.66;5077116;28;45390;-74
2023/03/30 03:08:55;;;;;;;;;4.50;3.00;;;;;15.55;58.44;100572.53;5077640;28;45208;-73
2023/03/30 03:11:20;;;;;;;;;5.25;4.50;;;;;15.55;58.37;100580.44;5077584;28;45358;-73
2023/03/30 03:13:46;;;;;;;;;4.00;3.00;;;;;15.56;58.08;100573.41;5077842;28;45308;-74
2023/03/30 03:16:12;;;;;;;;;2.00;2.00;;;;;15.55;57.99;100575.16;5077301;28;45357;-73
2023/03/30 03:18:40;;;;;;;;;3.00;2.00;;;;;15.53;58.08;100563.75;5077380;28;45326;-73
2023/03/30 03:21:09;;;;;;;;;2.75;2.75;;;;;15.51;57.92;100558.44;5077397;28;45370;-74
2023/03/30 03:23:36;;;;;;;;;4.00;3.50;;;;;15.48;58.15;100561.06;5077545;28;45486;-74
2023/03/30 03:26:02;;;;;;;;;6.00;4.50;;;;;15.42;59.05;100558.38;5077574;28;46122;-74
2023/03/30 03:28:29;;;;;;;;;3.00;3.00;;;;;15.31;58.62;100542.44;5077574;28;45377;-73
2023/03/30 03:30:55;;;;;;;;;3.25;2.50;;;;;15.32;57.82;100538.97;5062519;28;45582;-73
2023/03/30 03:33:21;;;;;;;;;3.25;3.00;;;;;15.32;59.38;100533.72;5081066;28;45550;-74
2023/03/30 03:35:47;;;;;;;;;3.00;2.00;;;;;15.36;59.99;100549.50;5080303;27;45323;-73
2023/03/30 03:38:13;;;;;;;;;4.25;2.25;;;;;15.33;59.11;100529.31;5080738;28;45167;-74
2023/03/30 03:40:39;;;;;;;;;5.00;4.00;;;;;15.15;60.74;100516.84;5062566;28;45415;-74
2023/03/30 03:43:05;;;;;;;;;4.00;4.00;;;;;15.05;61.00;100502.69;5081172;27;45511;-74
2023/03/30 03:45:31;;;;;;;;;4.25;2.75;;;;;15.03;60.57;100501.81;5068205;28;45541;-73
2023/03/30 03:47:57;;;;;;;;;3.50;3.00;;;;;15.02;60.28;100514.94;5060287;28;45315;-75
2023/03/30 03:50:22;;;;;;;;;3.00;3.00;;;;;14.93;61.23;100510.47;5059955;28;45512;-74
2023/03/30 03:52:48;;;;;;;;;5.25;4.00;;;;;14.85;62.37;100489.34;5060555;28;45381;-74
2023/03/30 03:55:14;;;;;;;;;3.50;3.00;;;;;14.84;61.00;100499.81;5059970;28;45994;-73
2023/03/30 03:57:40;;;;;;;;;4.00;4.00;;;;;14.70;62.26;100487.41;5059833;28;45333;-75
2023/03/30 04:00:15;;;;;;;;;6.25;3.00;;;;;14.68;62.35;100504.00;5060629;28;45511;-74
2023/03/30 04:02:41;;;;;;;;;4.50;3.25;;;;;14.54;63.12;100501.19;5060436;28;45309;-74
2023/03/30 04:05:08;;;;;;;;;2.25;2.00;;;;;14.58;62.04;100504.78;5059936;28;46477;-73
2023/03/30 04:07:34;;;;;;;;;4.25;3.50;;;;;14.46;63.38;100509.00;5060214;28;45338;-74
2023/03/30 04:10:00;;;;;;;;;3.75;3.00;;;;;14.40;63.25;100518.50;5053485;28;45382;-74
2023/03/30 04:12:28;;;;;;;;;3.75;2.25;;;;;14.42;62.91;100524.66;5080413;28;45499;-75
2023/03/30 04:14:54;;;;;;;;;4.25;3.50;;;;;14.43;62.71;100521.19;5079524;28;45399;-74
2023/03/30 04:17:22;;;;;;;;;3.50;3.00;;;;;14.44;63.29;100523.84;5061841;28;45558;-74
2023/03/30 04:19:52;;;;;;;;;3.75;3.25;;;;;14.42;63.23;100529.94;5080134;28;45177;-75
2023/03/30 04:22:23;;;;;;;;;4.00;3.25;;;;;14.35;63.36;100530.72;5062024;28;45755;-74
2023/03/30 04:24:49;;;;;;;;;4.25;3.25;;;;;14.39;62.96;100536.03;5079731;28;46377;-74
2023/03/30 04:27:15;;;;;;;;;1.50;1.25;;;;;14.37;62.29;100524.63;5079796;28;45524;-73
2023/03/30 04:29:43;;;;;;;;;3.00;3.00;;;;;14.39;62.53;100538.66;5061571;28;45292;-75
2023/03/30 04:32:11;;;;;;;;;3.00;2.25;;;;;14.37;62.69;100535.13;5079021;28;45362;-71
2023/03/30 04:34:41;;;;;;;;;2.50;2.00;;;;;14.38;61.83;100536.00;5079684;27;45421;-73
2023/03/30 04:37:10;;;;;;;;;4.75;4.25;;;;;14.36;62.93;100532.47;5079680;28;45345;-73
2023/03/30 04:39:36;;;;;;;;;4.00;3.00;;;;;14.33;63.18;100543.84;5079792;28;45521;-73
2023/03/30 04:42:03;;;;;;;;;4.00;3.00;;;;;14.23;63.42;100521.78;5061477;28;45422;-71
2023/03/30 04:44:29;;;;;;;;;4.00;3.00;;;;;14.19;64.33;100545.38;5079606;28;46193;-73
2023/03/30 04:46:55;;;;;;;;;3.25;2.50;;;;;14.10;64.03;100536.47;5079491;28;45265;-72
2023/03/30 04:49:21;;;;;;;;;3.25;3.00;;;;;14.06;63.90;100533.78;5079704;28;45461;-73
2023/03/30 04:51:47;;;;;;;;;3.50;2.00;;;;;14.06;64.61;100550.41;5079878;28;45252;-71
2023/03/30 04:54:12;;;;;;;;;3.00;2.00;;;;;14.06;64.50;100537.28;5079467;28;45519;-73
2023/03/30 04:56:38;;;;;;;;;78.67;63.67;;;;;13.91;64.39;100516.94;5079730;28;45416;-72
2023/03/30 04:59:04;;;;;;;;;8.25;7.00;;;;;13.97;64.86;100539.78;5079618;28;45500;-72
2023/03/30 05:01:29;;;;;;;;;5.00;5.00;;;;;13.93;64.24;100532.72;5078222;28;45489;-72
2023/03/30 05:03:55;;;;;;;;;5.00;3.00;;;;;13.99;64.20;100545.94;5079357;28;45251;-72
2023/03/30 05:06:20;;;;;;;;;3.00;3.00;;;;;13.82;64.10;100543.03;5060822;28;45452;-72
2023/03/30 05:08:46;;;;;;;;;3.00;3.00;;;;;13.65;65.36;100536.63;5079435;28;45522;-73
2023/03/30 05:11:12;;;;;;;;;3.50;3.00;;;;;13.59;65.81;100547.91;5079673;28;45477;-72
2023/03/30 05:13:39;;;;;;;;;4.50;3.00;;;;;13.56;65.34;100541.72;5061268;28;47183;-73
2023/03/30 05:16:05;;;;;;;;;6.00;4.50;;;;;13.55;65.87;100551.34;5079156;28;45531;-71
2023/03/30 05:18:31;;;;;;;;;4.00;2.00;;;;;13.57;65.66;100554.88;5079418;28;45385;-71
2023/03/30 05:20:57;;;;;;;;;3.50;3.00;;;;;13.53;66.96;100545.16;5079249;28;46025;-72
2023/03/30 05:23:23;;;;;;;;;17.75;15.75;;;;;13.52;65.84;100551.25;5078976;28;46104;-71
2023/03/30 05:25:49;;;;;;;;;26.00;25.75;;;;;13.50;66.83;100547.72;5078994;28;45561;-72
2023/03/30 05:28:16;;;;;;;;;12.00;11.00;;;;;13.41;66.64;100529.19;5079057;28;45290;-72
2023/03/30 05:30:45;;;;;;;;;39.75;33.25;;;;;13.53;66.09;100553.91;5079303;28;45827;-74
2023/03/30 05:33:11;;;;;;;;;4.50;4.00;;;;;13.51;65.68;100560.88;5078263;28;47036;-73
2023/03/30 05:35:37;;;;;;;;;5.00;4.00;;;;;13.44;66.24;100552.88;5078420;28;45572;-74
2023/03/30 05:38:04;;;;;;;;;5.00;4.00;;;;;13.43;66.26;100552.00;5078811;28;45480;-74
2023/03/30 05:40:30;;;;;;;;;4.75;4.00;;;;;13.43;65.66;100556.34;5078934;28;45519;-73
2023/03/30 05:42:56;;;;;;;;;4.00;3.00;;;;;13.44;65.49;100552.88;5078435;28;45545;-74
2023/03/30 05:45:21;;;;;;;;;3.00;3.00;;;;;13.43;66.27;100556.34;5078602;28;45315;-75
2023/03/30 05:47:47;;;;;;;;;6.00;4.25;;;;;13.33;66.97;100555.31;5060505;28;45366;-74
2023/03/30 05:50:12;;;;;;;;;17.25;12.00;;;;;13.39;66.57;100562.38;5078817;28;45310;-71
2023/03/30 05:52:38;;;;;;;;;10.00;9.00;;;;;13.41;66.58;100555.41;5077950;28;45259;-73
2023/03/30 05:55:04;;;;;;;;;8.00;5.00;;;;;13.41;66.21;100552.78;5078413;27;45390;-73
2023/03/30 05:57:30;;;;;;;;;17.25;14.00;;;;;13.42;66.51;100565.94;5078449;28;45426;-74
2023/03/30 05:59:55;;;;;;;;;14.50;11.50;;;;;13.42;66.62;100573.81;5078596;28;45405;-74
2023/03/30 06:02:21;;;;;;;;;4.50;4.00;;;;;13.46;66.17;100577.41;5076910;28;46164;-75
2023/03/30 06:04:46;;;;;;;;;3.75;3.00;;;;;13.35;66.24;100558.84;5076825;27;45399;-74
2023/03/30 06:07:12;;;;;;;;;10.25;9.25;;;;;13.48;65.23;100562.56;5078331;28;45500;-73
2023/03/30 06:09:37;;;;;;;;;8.25;7.75;;;;;13.44;66.59;100571.25;5078363;28;45315;-73
2023/03/30 06:12:03;;;;;;;;;5.00;4.50;;;;;13.38;66.40;100568.50;5077757;28;45536;-73
2023/03/30 06:14:29;;;;;;;;;5.00;5.00;;;;;13.52;65.87;100598.50;5059631;28;45271;-74
2023/03/30 06:16:55;;;;;;;;;5.00;3.50;;;;;13.53;65.78;100592.41;5059697;28;45626;-80
2023/03/30 06:19:24;;;;;;;;;5.50;5.25;;;;;13.50;65.05;100576.59;5078239;28;45439;-79
2023/03/30 06:21:50;;;;;;;;;4.50;2.75;;;;;13.63;65.68;100606.59;5078062;28;45417;-81
2023/03/30 06:24:15;;;;;;;;;6.50;5.75;;;;;13.57;65.83;100602.13;5078028;28;45535;-78
2023/03/30 06:26:41;;;;;;;;;3.50;3.00;;;;;13.02;64.87;100527.56;5078569;28;45544;-86
2023/03/30 06:29:06;;;;;;;;;7.00;5.25;;;;;13.61;65.00;100630.19;5077939;27;45409;-83
2023/03/30 06:31:32;;;;;;;;;5.00;4.25;;;;;13.65;65.75;100620.63;5077936;28;45504;-85
2023/03/30 06:33:58;;;;;;;;;5.25;4.00;;;;;13.79;65.83;100637.53;5077636;28;45441;-82
2023/03/30 06:36:24;;;;;;;;;6.50;5.00;;;;;14.02;65.16;100630.03;5093480;27;45510;-83
2023/03/30 06:38:49;;;;;;;;;4.00;4.00;;;;;14.32;63.80;100649.78;5077776;28;45420;-84
2023/03/30 06:41:15;;;;;;;;;13.25;7.00;;;;;14.48;63.66;100662.34;5077871;28;45500;-75
2023/03/30 06:43:40;;;;;;;;;9.75;8.00;;;;;14.69;63.26;100659.19;5077944;28;45445;-84
2023/03/30 06:46:07;;;;;;;;;11.25;10.00;;;;;15.09;62.51;100666.75;5073671;28;45368;-81
2023/03/30 06:48:32;;;;;;;;;12.00;11.75;;;;;15.26;62.20;100667.88;5059468;28;45246;-83
2023/03/30 06:50:58;;;;;;;;;5.50;4.00;;;;;15.25;61.82;100659.94;5077120;28;45445;-81
2023/03/30 06:53:24;;;;;;;;;10.00;9.50;;;;;15.44;61.62;100672.47;5077482;28;45461;-82
2023/03/30 06:55:51;;;;;;;;;13.50;12.75;;;;;15.52;61.67;100665.53;5077661;28;45559;-81
2023/03/30 06:58:17;;;;;;;;;7.25;4.75;;;;;15.40;61.40;100675.03;5077616;28;45497;-81
2023/03/30 07:00:42;;;;;;;;;5.75;5.00;;;;;15.44;61.43;100683.00;5059334;28;45360;-80
2023/03/30 07:03:08;;;;;;;;;6.00;5.00;;;;;15.52;61.39;100689.25;5075130;28;45457;-82
2023/03/30 07:05:34;;;;;;;;;5.75;5.50;;;;;16.03;60.12;100700.34;5076806;28;45421;-77
2023/03/30 07:07:59;;;;;;;;;7.00;5.50;;;;;16.52;58.95;100701.69;5076957;28;45333;-76
2023/03/30 07:10:26;;;;;;;;;4.25;4.00;;;;;18.08;55.92;100688.41;5075793;28;46161;-77
2023/03/30 07:12:51;;;;;;;;;5.50;4.50;;;;;18.29;54.33;100691.06;5058248;28;45530;-79
2023/03/30 07:15:17;;;;;;;;;5.00;4.00;;;;;18.00;54.87;100698.09;5058598;28;45469;-76
2023/03/30 07:17:42;;;;;;;;;4.25;4.25;;;;;18.26;54.47;100692.84;5077830;28;45292;-77
2023/03/30 07:20:10;;;;;;;;;4.00;3.33;;;;;18.60;53.25;100679.59;5077334;28;45956;-77
2023/03/30 07:22:36;;;;;;;;;7.00;5.50;;;;;18.49;53.93;100682.28;5077191;28;45348;-76
2023/03/30 07:25:02;;;;;;;;;6.50;4.50;;;;;18.63;53.82;100690.19;5076975;28;45525;-77
2023/03/30 07:27:28;;;;;;;;;6.67;6.33;;;;;18.68;53.78;100693.69;5077084;28;45458;-77
2023/03/30 07:29:54;;;;;;;;;4.00;3.00;;;;;18.74;53.69;100696.38;5076853;28;45576;-76
2023/03/30 07:32:20;;;;;;;;;5.33;3.33;;;;;18.90;53.32;100705.22;5054673;27;45853;-72
2023/03/30 07:34:46;;;;;;;;;3.67;3.33;;;;;19.04;52.76;100700.75;5057105;28;45319;-77
2023/03/30 07:37:15;;;;;;;;;4.00;3.67;;;;;19.25;51.98;100693.63;5056788;28;45234;-73
2023/03/30 07:39:40;;;;;;;;;5.00;3.67;;;;;19.28;51.93;100698.94;5056043;28;45316;-72
2023/03/30 07:42:06;;;;;;;;;3.00;2.33;;;;;19.54;51.91;100703.25;5056121;28;45505;-74
2023/03/30 07:44:32;;;;;;;;;5.25;5.00;;;;;19.89;51.09;100707.50;5056613;28;45361;-75
2023/03/30 07:46:57;;;;;;;;;4.00;4.00;;;;;20.18;50.43;100721.47;5056825;28;45328;-72
2023/03/30 07:49:23;;;;;;;;;7.00;4.00;;;;;20.16;50.38;100717.94;5038201;28;46364;-73
2023/03/30 07:51:49;;;;;;;;;5.00;4.00;;;;;20.93;48.37;100719.09;5056715;28;45904;-73
2023/03/30 07:54:15;;;;;;;;;5.00;4.00;;;;;21.39;47.69;100724.81;5038847;28;45409;-76
2023/03/30 07:56:41;;;;;;;;;4.67;4.00;;;;;22.18;46.36;100731.75;5056628;28;45232;-76
2023/03/30 07:59:09;;;;;;;;;6.67;3.67;;;;;22.55;45.77;100731.22;5056515;28;46083;-73
2023/03/30 08:01:34;;;;;;;;;1.00;1.00;;;;;23.85;43.14;100727.91;5056392;28;45410;-73
2023/03/30 08:04:01;;;;;;;;;6.67;4.67;;;;;25.11;40.31;100724.84;5056444;28;45512;-76
2023/03/30 08:06:27;;;;;;;;;5.00;4.00;;;;;25.08;40.12;100730.25;5056700;28;45466;-76
2023/03/30 08:08:54;;;;;;;;;3.00;2.00;;;;;24.71;41.38;100728.56;5038231;28;45509;-74
2023/03/30 08:11:20;;;;;;;;;5.33;5.00;;;;;24.64;41.35;100745.66;5056825;28;45748;-73
2023/03/30 08:13:45;;;;;;;;;7.33;5.33;;;;;24.76;41.40;100750.69;5056530;28;45384;-73
2023/03/30 08:16:11;;;;;;;;;6.67;5.33;;;;;24.78;41.42;100775.56;5041087;28;45471;-73
2023/03/30 08:18:37;;;;;;;;;5.33;3.00;;;;;25.87;38.97;100773.53;5059226;28;46606;-73
2023/03/30 08:21:03;;;;;;;;;4.00;4.00;;;;;26.42;37.34;100762.94;5072088;28;45418;-77
2023/03/30 08:23:31;;;;;;;;;3.67;2.33;;;;;26.14;38.20;100780.78;5080267;28;45529;-77
2023/03/30 08:26:00;;;;;;;;;4.67;3.33;;;;;26.70;37.39;100777.22;5079283;28;45338;-77
2023/03/30 08:28:26;;;;;;;;;3.00;3.00;;;;;27.47;36.15;100787.09;5079581;28;46226;-77
2023/03/30 08:30:53;;;;;;;;;3.67;3.00;;;;;27.57;35.70;100767.03;5079672;28;45316;-76
2023/03/30 08:33:19;;;;;;;;;4.33;4.00;;;;;28.11;34.37;100776.66;5080201;28;45303;-76
2023/03/30 08:35:46;;;;;;;;;3.00;3.00;;;;;28.71;33.38;100787.69;5080043;28;45363;-78
2023/03/30 08:38:18;;;;;;;;;3.00;3.00;;;;;28.91;32.96;100785.97;5078909;28;46510;-77
2023/03/30 08:40:46;;;;;;;;;3.67;2.67;;;;;29.22;32.32;100799.00;5079597;28;45633;-76
2023/03/30 08:43:25;;;;;;;;;2.00;1.00;;;;;30.10;32.75;100786.94;5079168;28;45569;-77
2023/03/30 08:45:51;;;;;;;;;3.00;2.67;;;;;30.54;30.54;100786.66;5080137;28;45464;-77
2023/03/30 08:48:22;;;;;;;;;3.33;3.33;;;;;30.90;30.54;100799.28;5079322;28;45562;-76
2023/03/30 08:50:58;;;;;;;;;4.67;3.33;;;;;31.27;29.84;100787.41;5079717;28;45361;-77
2023/03/30 08:53:25;;;;;;;;;3.00;2.00;;;;;31.72;29.42;100804.00;5079535;28;45525;-75
2023/03/30 08:56:15;;;;;;;;;3.00;2.00;;;;;32.32;28.49;100794.41;5079851;28;45496;-76
2023/03/30 08:59:18;;;;;;;;;3.33;2.67;;;;;32.94;29.06;100802.53;5079261;28;46118;-77
2023/03/30 09:01:47;;;;;;;;;2.33;2.33;;;;;33.73;26.91;100801.41;5079178;28;45470;-77
2023/03/30 09:04:28;;;;;;;;;2.00;2.00;;;;;33.85;26.92;100793.34;5079279;27;45453;-78
2023/03/30 09:07:10;;;;;;;;;6.00;4.33;;;;;34.37;26.29;100788.25;5078999;28;45482;-73
2023/03/30 09:09:44;;;;;;;;;3.00;3.00;;;;;34.24;26.21;100802.63;5073456;28;46493;-77
2023/03/30 09:12:29;;;;;;;;;3.33;2.67;;;;;34.37;26.90;100794.53;5058671;28;45557;-77
2023/03/30 09:15:03;;;;;;;;;5.33;3.00;;;;;34.49;25.07;100789.28;5040977;28;45267;-74
2023/03/30 09:17:38;;;;;;;;;1.67;1.67;;;;;34.06;26.26;100785.69;5059175;28;45392;-76
2023/03/30 09:20:11;;;;;;;;;6.00;5.33;;;;;34.02;26.11;100784.13;5058576;28;46211;-77
2023/03/30 09:22:40;;;;;;;;;2.33;1.00;;;;;34.53;26.52;100786.25;5058524;28;45414;-77
2023/03/30 09:25:16;;;;;;;;;2.67;2.00;;;;;34.73;26.26;100784.06;5058818;28;45414;-78
2023/03/30 09:27:54;;;;;;;;;2.33;2.33;;;;;34.83;26.72;100787.91;5057777;28;45204;-77
2023/03/30 09:30:24;;;;;;;;;3.00;2.00;;;;;34.76;26.21;100783.84;5058812;28;46156;-78
2023/03/30 09:32:58;;;;;;;;;3.33;3.00;;;;;34.95;25.75;100787.06;5058745;28;45427;-76
2023/03/30 09:35:33;;;;;;;;;2.67;2.00;;;;;34.54;25.65;100778.97;5058818;28;45438;-75
2023/03/30 09:37:58;;;;;;;;;1.00;1.00;;;;;34.22;25.94;100792.81;5058721;28;45421;-75
2023/03/30 09:41:06;;;;;;;;;2.67;2.67;;;;;34.06;26.68;100787.50;5040515;28;46315;-74
2023/03/30 09:43:42;;;;;;;;;4.33;4.00;;;;;34.08;27.02;100772.91;5048919;28;45375;-75
2023/03/30 09:46:08;;;;;;;;;2.00;1.67;;;;;33.78;26.45;100781.13;5072588;28;45976;-75
2023/03/30 09:48:48;;;;;;;;;4.67;1.67;;;;;33.38;26.77;100761.94;5078119;28;45460;-75
2023/03/30 09:51:21;;;;;;;;;2.00;2.00;;;;;33.38;27.36;100767.38;5078262;28;45463;-74
2023/03/30 09:53:56;;;;;;;;;3.00;1.67;;;;;33.56;27.00;100778.03;5060207;28;45383;-74
2023/03/30 09:56:27;;;;;;;;;3.33;2.00;;;;;33.20;26.38;100761.25;5078711;28;45413;-75
2023/03/30 09:58:54;;;;;;;;;1.00;1.00;;;;;33.19;27.64;100772.19;5079004;28;45213;-75
2023/03/30 10:01:20;;;;;;;;;3.00;2.67;;;;;32.85;27.51;100774.22;5078082;28;45491;-75
2023/03/30 10:04:10;;;;;;;;;2.67;1.67;;;;;32.42;28.42;100765.88;5078052;28;45450;-77
2023/03/30 10:06:46;;;;;;;;;3.00;2.00;;;;;31.65;28.56;100765.63;5078115;28;45328;-76
2023/03/30 10:09:12;;;;;;;;;3.33;3.33;;;;;31.61;29.22;100773.97;5077080;28;45273;-77
2023/03/30 10:11:47;;;;;;;;;3.00;2.00;;;;;31.58;28.98;100771.47;5077006;28;45994;-77
2023/03/30 10:14:30;;;;;;;;;2.00;2.00;;;;;31.21;29.56;100758.06;5077730;28;45565;-77
2023/03/30 10:16:58;;;;;;;;;4.00;4.00;;;;;31.36;29.73;100758.22;5078021;28;45288;-77
2023/03/30 10:19:24;;;;;;;;;3.67;2.00;;;;;31.12;30.22;100748.63;5078455;28;45169;-77
2023/03/30 10:21:58;;;;;;;;;2.00;2.00;;;;;31.25;30.10;100756.06;5076406;28;45389;-77
2023/03/30 10:24:30;;;;;;;;;3.33;3.00;;;;;31.06;30.20;100746.25;5077997;28;45538;-77
2023/03/30 10:27:09;;;;;;;;;2.33;1.67;;;;;30.98;30.36;100747.59;5078317;28;45454;-78
2023/03/30 10:29:35;;;;;;;;;1.33;1.33;;;;;30.92;30.35;100740.72;5060145;27;45347;-77
2023/03/30 10:32:09;;;;;;;;;2.00;2.00;;;;;30.70;30.04;100741.78;5077873;27;45421;-76
2023/03/30 10:34:44;;;;;;;;;4.00;4.00;;;;;30.30;30.75;100730.31;5077888;28;45473;-77
2023/03/30 10:37:31;;;;;;;;;3.67;3.67;;;;;30.03;31.27;100731.63;5077552;27;45392;-74
2023/03/30 10:40:00;;;;;;;;;4.67;3.67;;;;;29.58;31.61;100730.13;5077648;28;45676;-74
2023/03/30 10:42:30;;;;;;;;;2.67;2.33;;;;;29.02;31.91;100694.94;5077905;28;45560;-76
2023/03/30 10:45:01;;;;;;;;;3.33;3.33;;;;;29.17;32.53;100725.69;5074429;28;45425;-77
2023/03/30 10:47:51;;;;;;;;;2.00;2.00;;;;;29.14;32.70;100713.25;5057467;28;45343;-76
2023/03/30 10:50:43;;;;;;;;;4.00;3.67;;;;;29.13;32.43;100707.94;5057166;28;45527;-72
2023/03/30 10:53:17;;;;;;;;;2.00;2.00;;;;;29.31;32.91;100706.25;5057171;28;45410;-76
2023/03/30 10:56:12;;;;;;;;;2.67;2.00;;;;;29.20;32.70;100677.13;5057194;28;45374;-76
2023/03/30 10:59:05;;;;;;;;;4.67;3.33;;;;;29.05;32.93;100700.19;5046297;28;45598;-76
2023/03/30 11:01:45;;;;;;;;;3.00;3.00;;;;;29.04;32.44;100693.03;5057572;28;45450;-76
2023/03/30 11:04:33;;;;;;;;;2.00;1.33;;;;;28.99;32.77;100687.03;5056921;28;46209;-77
2023/03/30 11:07:00;;;;;;;;;4.00;3.00;;;;;28.78;32.80;100671.81;5056384;28;45368;-73
2023/03/30 11:09:33;;;;;;;;;4.00;3.67;;;;;29.01;33.13;100679.75;5062928;28;45498;-73
2023/03/30 11:12:19;;;;;;;;;4.00;2.00;;;;;28.88;33.17;100681.22;5077977;28;45264;-74
2023/03/30 11:14:54;;;;;;;;;3.33;3.00;;;;;28.63;33.30;100679.63;5076891;28;45966;-77
2023/03/30 11:17:33;;;;;;;;;5.00;3.00;;;;;28.51;33.71;100674.75;5076784;27;45473;-77
2023/03/30 11:20:20;;;;;;;;;3.00;2.67;;;;;28.69;33.26;100660.53;5077627;28;45319;-77
2023/03/30 11:22:52;;;;;;;;;2.00;2.00;;;;;28.56;33.36;100653.94;5077544;28;45417;-75
2023/03/30 11:25:22;;;;;;;;;5.00;3.00;;;;;28.33;33.75;100638.75;5076951;28;46234;-77
2023/03/30 11:27:56;;;;;;;;;3.33;3.00;;;;;27.93;33.87;100653.84;5076869;28;45583;-76
2023/03/30 11:30:28;;;;;;;;;4.00;3.00;;;;;27.42;34.94;100626.31;5077098;28;45418;-77
2023/03/30 11:33:08;;;;;;;;;5.00;3.00;;;;;27.00;35.26;100640.38;5077290;28;45224;-76
2023/03/30 11:35:59;;;;;;;;;3.67;2.67;;;;;27.25;35.56;100639.50;5058398;28;46404;-74
2023/03/30 11:38:27;;;;;;;;;2.67;2.67;;;;;27.40;35.35;100635.34;5077042;28;45513;-74
2023/03/30 11:41:33;;;;;;;;;3.00;3.00;;;;;27.73;34.32;100638.50;5077138;28;45571;-73